Eibergen, Netherlands
Current Conditions -  °F | °C
As of 6:55 AM on Thursday 27 Nov 2014 (Local Time) from EHDL Reporting Station
Drizzle Drizzle  
Wind Chill: 37°   Ceiling: 700
Heat Index: 43°   Visibility: 5mi
Dew Point: 39°   Wind: 9mph
Humidity: 87%   Direction: 120°ESE
Pressure: 29.77"   Gusts: NA
Location:  52.1°N, 6.65°E
Report Text: EHDL 270555Z AUTO 12008KT 8000 -DZ BKN007 OVC009 06/04 Q1008 REDZ GRN
Loading
Personal Weather Stations






























Interactive Weather Map New forecast layout! Learn more

10-Day Weather Forecast

Advertisements
Track Severe Weather on mobile